Sunday, December 17, 2017, 2:44 PM EST
Back to Local

KIPT, Williamsport-lycoming County

Location: Montoursville, PA, United States Lat: 41.25
Local Time: 2:44 PM EST (19:44 GMT) Lon: -76.917
Time Zone: US/Eastern Elev: 528 ft

Show me the last for .
Show Decoded

2017-12-17 13:54 METAR KIPT 171854Z 00000KT 10SM OVC200 03/M03 A3019 RMK AO2 SLP229 T00281028 =
2017-12-17 12:54 METAR KIPT 171754Z 00000KT 10SM OVC200 03/M03 A3020 RMK AO2 SLP232 T00281028
                 10033 20011 58018 =
2017-12-17 11:54 METAR KIPT 171654Z 00000KT 10SM OVC200 03/M03 A3023 RMK AO2 SLP243 T00281028 =
2017-12-17 10:54 METAR KIPT 171554Z 00000KT 10SM OVC200 03/M03 A3027 RMK AO2 SLP254 T00281033 =
2017-12-17 09:54 METAR KIPT 171454Z 12003KT 10SM FEW045 02/M03 A3025 RMK AO2 SLP250 T00171028
                 51009 =
2017-12-17 08:54 METAR KIPT 171354Z 09004KT 10SM OVC044 02/M03 A3025 RMK AO2 SLP249 T00171033 =
2017-12-17 07:54 METAR KIPT 171254Z 05004KT 10SM OVC043 01/M04 A3024 RMK AO2 SLP246 T00111039 =
2017-12-17 06:54 METAR KIPT 171154Z 00000KT 10SM OVC044 01/M03 A3023 RMK AO2 SLP240 T00111033
                 10017 20011 53006 =
2017-12-17 05:54 METAR KIPT 171054Z AUTO 00000KT 10SM OVC046 01/M04 A3021 RMK AO2 SLP236
                 T00111039 =
2017-12-17 04:54 METAR KIPT 170954Z AUTO 06004KT 10SM OVC047 01/M04 A3019 RMK AO2 SLP229
                 T00111039 =
2017-12-17 03:54 METAR KIPT 170854Z AUTO 06004KT 10SM OVC050 01/M04 A3021 RMK AO2 SLP234
                 T00111039 50010 =
2017-12-17 03:02 METAR KIPT 170802Z AUTO 04003KT 10SM SCT028 OVC050 01/M04 A3022 RMK AO2
                 T00111039 =
2017-12-17 02:54 METAR KIPT 170754Z AUTO 00000KT 10SM BKN029 BKN033 OVC050 01/M03 A3022 RMK AO2
                 SLP237 T00111033 =
2017-12-17 02:46 METAR KIPT 170746Z AUTO 07003KT 10SM BKN027 OVC050 01/M03 A3021 RMK AO2
                 T00111033 =
2017-12-17 01:54 METAR KIPT 170654Z AUTO 00000KT 10SM FEW028 OVC050 02/M03 A3019 RMK AO2 SLP228
                 T00171033 =
2017-12-17 01:39 METAR KIPT 170639Z AUTO 06003KT 10SM SCT029 OVC050 01/M03 A3018 RMK AO2
                 T00111033 =
2017-12-17 00:54 METAR KIPT 170554Z AUTO 09003KT 10SM BKN029 OVC050 01/M03 A3018 RMK AO2 SLP224
                 T00111033 10033 20011 52009 =
2017-12-16 23:54 METAR KIPT 170454Z AUTO 09004KT 10SM OVC027 02/M02 A3017 RMK AO2 SLP222
                 T00171022 400441106 =
2017-12-16 22:54 METAR KIPT 170354Z AUTO 00000KT 10SM OVC028 01/M02 A3015 RMK AO2 SLP217
                 T00111022 =
2017-12-16 21:54 METAR KIPT 170254Z 00000KT 10SM OVC027 02/M02 A3015 RMK AO2 SLP215 T00221017
                 51017 =
2017-12-16 20:54 METAR KIPT 170154Z 00000KT 10SM OVC027 03/M03 A3014 RMK AO2 SLP212 T00281028 =
2017-12-16 19:54 METAR KIPT 170054Z 01004KT 10SM OVC025 03/M02 A3013 RMK AO2 SLP211 T00281022 =
2017-12-16 19:26 METAR KIPT 170026Z 01005KT 10SM BKN028 OVC034 03/M02 A3012 RMK AO2 T00281022 =
2017-12-16 18:54 METAR KIPT 162354Z 28003KT 10SM OVC036 03/M02 A3010 RMK AO2 SLP200 T00331017
                 10044 20028 51035 =
2017-12-16 17:54 METAR KIPT 162254Z 00000KT 10SM OVC037 03/M02 A3007 RMK AO2 SLP188 T00331017 =
2017-12-16 16:54 METAR KIPT 162154Z 28005KT 10SM BKN040 OVC065 04/M02 A3004 RMK AO2 SLP178
                 T00391017 =
2017-12-16 15:54 METAR KIPT 162054Z 27007KT 10SM OVC043 04/M02 A3000 RMK AO2 SLP164 T00391022
                 53019 =
2017-12-16 14:54 METAR KIPT 161954Z 27010G17KT 10SM OVC038 04/M03 A2997 RMK AO2 SLP154 T00441028
                 =

Support USWX by starting your Amazon purchase here.